createdAt,value
2019-03-16T00:00:29.630Z,7.20
2019-03-16T00:03:00.094Z,7.20
2019-03-16T00:05:30.497Z,7.10
2019-03-16T00:08:01.012Z,7.10
2019-03-16T00:10:31.378Z,7.10
2019-03-16T00:13:02.479Z,7.10
2019-03-16T00:15:32.830Z,7.10
2019-03-16T00:18:03.593Z,7.10
2019-03-16T00:20:33.959Z,7.10
2019-03-16T00:23:04.327Z,7.10
2019-03-16T00:25:34.677Z,7.00
2019-03-16T00:28:16.752Z,7.10
2019-03-16T00:30:47.098Z,7.00
2019-03-16T00:33:17.486Z,7.00
2019-03-16T00:35:47.826Z,7.10
2019-03-16T00:38:18.200Z,7.00
2019-03-16T00:40:48.537Z,7.00
2019-03-16T00:43:18.930Z,7.00
2019-03-16T00:45:49.276Z,7.00
2019-03-16T00:48:19.654Z,6.90
2019-03-16T00:50:50.028Z,6.90
2019-03-16T00:53:20.365Z,6.90
2019-03-16T00:55:51.871Z,6.80
2019-03-16T00:58:22.234Z,6.80
2019-03-16T01:00:52.622Z,6.80
2019-03-16T01:03:22.976Z,6.80
2019-03-16T01:05:53.563Z,6.80
2019-03-16T01:08:24.066Z,6.80
2019-03-16T01:10:54.486Z,6.80
2019-03-16T01:13:24.827Z,6.70
2019-03-16T01:15:55.222Z,6.70
2019-03-16T01:18:25.573Z,6.70
2019-03-16T01:20:56.045Z,6.60
2019-03-16T01:23:26.400Z,6.70
2019-03-16T01:25:56.768Z,6.70
2019-03-16T01:28:27.138Z,6.70
2019-03-16T01:30:57.489Z,6.70
2019-03-16T01:33:27.853Z,6.70
2019-03-16T01:35:58.320Z,6.70
2019-03-16T01:38:28.777Z,6.60
2019-03-16T01:40:59.250Z,6.60
2019-03-16T01:43:29.586Z,6.60
2019-03-16T01:45:59.961Z,6.60
2019-03-16T01:48:30.306Z,6.60
2019-03-16T01:51:00.687Z,6.60
2019-03-16T01:53:31.433Z,6.60
2019-03-16T01:56:01.844Z,6.60
2019-03-16T01:58:32.483Z,6.60
2019-03-16T02:01:02.965Z,6.60
2019-03-16T02:03:33.328Z,6.60
2019-03-16T02:06:03.665Z,6.60
2019-03-16T02:08:34.091Z,6.60
2019-03-16T02:11:04.450Z,6.60
2019-03-16T02:13:34.818Z,6.60
2019-03-16T02:16:10.734Z,6.60
2019-03-16T02:18:37.161Z,6.70
2019-03-16T02:21:07.512Z,6.70
2019-03-16T02:23:39.062Z,6.70
2019-03-16T02:26:09.399Z,6.70
2019-03-16T02:28:39.778Z,6.70
2019-03-16T02:31:10.150Z,6.70
2019-03-16T02:33:40.579Z,6.70
2019-03-16T02:36:10.957Z,6.70
2019-03-16T02:38:41.362Z,6.70
2019-03-16T02:41:11.727Z,6.70
2019-03-16T02:43:42.457Z,6.70
2019-03-16T02:46:12.826Z,6.70
2019-03-16T02:48:43.162Z,6.70
2019-03-16T02:51:13.553Z,6.70
2019-03-16T02:53:43.895Z,6.60
2019-03-16T02:56:14.259Z,6.60
2019-03-16T02:59:03.650Z,6.60
2019-03-16T03:01:34.241Z,6.60
2019-03-16T03:04:04.601Z,6.60
2019-03-16T03:06:34.984Z,6.50
2019-03-16T03:09:08.668Z,6.60
2019-03-16T03:11:39.042Z,6.60
2019-03-16T03:14:09.381Z,6.50
2019-03-16T03:16:39.776Z,6.50
2019-03-16T03:19:10.136Z,6.50
2019-03-16T03:21:40.494Z,6.50
2019-03-16T03:24:10.919Z,6.50
2019-03-16T03:26:41.306Z,6.50
2019-03-16T03:29:11.702Z,6.50
2019-03-16T03:31:42.083Z,6.40
2019-03-16T03:34:12.443Z,6.40
2019-03-16T03:36:42.790Z,6.40
2019-03-16T03:39:13.233Z,6.40
2019-03-16T03:41:43.597Z,6.40
2019-03-16T03:44:14.029Z,6.40
2019-03-16T03:46:44.346Z,6.30
2019-03-16T03:49:14.728Z,6.30
2019-03-16T03:51:45.122Z,6.30
2019-03-16T03:54:15.454Z,6.30
2019-03-16T03:56:57.464Z,6.30
2019-03-16T03:59:27.745Z,6.30
2019-03-16T04:01:58.154Z,6.20
2019-03-16T04:04:28.511Z,6.20
2019-03-16T04:06:59.044Z,6.20
2019-03-16T04:09:29.530Z,6.20
2019-03-16T04:11:59.915Z,6.20
2019-03-16T04:14:30.318Z,6.20
2019-03-16T04:17:00.695Z,6.30
2019-03-16T04:19:31.073Z,6.30
2019-03-16T04:22:01.845Z,6.30
2019-03-16T04:24:32.213Z,6.30
2019-03-16T04:27:15.066Z,6.30
2019-03-16T04:29:34.543Z,6.30
2019-03-16T04:32:05.081Z,6.30
2019-03-16T04:34:35.462Z,6.40
2019-03-16T04:37:05.837Z,6.40
2019-03-16T04:39:36.313Z,6.40
2019-03-16T04:42:06.650Z,6.40
2019-03-16T04:44:37.105Z,6.40
2019-03-16T04:47:07.467Z,6.40
2019-03-16T04:49:37.889Z,6.40
2019-03-16T04:52:08.234Z,6.40
2019-03-16T04:54:38.595Z,6.40
2019-03-16T04:57:08.985Z,6.40
2019-03-16T04:59:39.338Z,6.40
2019-03-16T05:02:09.699Z,6.40
2019-03-16T05:04:42.736Z,6.40
2019-03-16T05:07:12.182Z,6.30
2019-03-16T05:09:42.582Z,6.30
2019-03-16T05:12:12.957Z,6.30
2019-03-16T05:14:43.321Z,6.30
2019-03-16T05:17:13.679Z,6.30
2019-03-16T05:19:45.133Z,6.20
2019-03-16T05:22:16.442Z,6.20
2019-03-16T05:24:46.803Z,6.30
2019-03-16T05:27:17.229Z,6.20
2019-03-16T05:29:47.583Z,6.20
2019-03-16T05:32:17.941Z,6.20
2019-03-16T05:34:56.353Z,6.20
2019-03-16T05:37:20.253Z,6.20
2019-03-16T05:39:50.733Z,6.20
2019-03-16T05:42:21.074Z,6.20
2019-03-16T05:44:51.479Z,6.20
2019-03-16T05:47:22.154Z,6.20
2019-03-16T05:49:52.615Z,6.30
2019-03-16T05:52:22.957Z,6.30
2019-03-16T05:54:53.462Z,6.30
2019-03-16T05:57:23.769Z,6.30
2019-03-16T05:59:55.425Z,6.30
2019-03-16T06:02:25.778Z,6.30
2019-03-16T06:05:09.409Z,6.30
2019-03-16T06:07:28.234Z,6.30
2019-03-16T06:09:58.979Z,6.40
2019-03-16T06:12:29.314Z,6.40
2019-03-16T06:15:00.166Z,6.40
2019-03-16T06:17:30.746Z,6.40
2019-03-16T06:20:01.227Z,6.50
2019-03-16T06:22:31.633Z,6.60
2019-03-16T06:25:02.095Z,6.60
2019-03-16T06:27:33.501Z,6.70
2019-03-16T06:30:04.206Z,6.80
2019-03-16T06:32:35.608Z,6.80
2019-03-16T06:35:06.236Z,6.80
2019-03-16T06:37:36.570Z,6.90
2019-03-16T06:40:07.210Z,6.90
2019-03-16T06:42:37.545Z,6.90
2019-03-16T06:45:08.056Z,6.90
2019-03-16T06:47:38.392Z,7.00
2019-03-16T06:50:09.853Z,7.00
2019-03-16T06:52:40.237Z,7.10
2019-03-16T06:55:10.580Z,7.10
2019-03-16T06:57:40.942Z,7.20
2019-03-16T07:00:11.837Z,7.40
2019-03-16T07:02:42.184Z,7.60
2019-03-16T07:05:12.704Z,7.90
2019-03-16T07:07:43.530Z,8.10
2019-03-16T07:10:14.012Z,8.30
2019-03-16T07:12:45.434Z,8.30
2019-03-16T07:15:15.909Z,8.30
2019-03-16T07:17:46.260Z,8.30
2019-03-16T07:20:18.009Z,8.40
2019-03-16T07:22:48.365Z,8.40
2019-03-16T07:25:18.756Z,8.40
2019-03-16T07:27:49.160Z,8.40
2019-03-16T07:30:19.508Z,8.50
2019-03-16T07:32:50.330Z,8.50
2019-03-16T07:35:20.755Z,8.50
2019-03-16T07:37:51.193Z,8.50
2019-03-16T07:40:21.545Z,8.40
2019-03-16T07:42:52.018Z,8.40
2019-03-16T07:45:22.361Z,8.50
2019-03-16T07:47:52.782Z,8.50
2019-03-16T07:50:23.156Z,8.60
2019-03-16T07:52:54.124Z,8.60
2019-03-16T07:55:24.527Z,8.70
2019-03-16T07:57:55.002Z,8.60
2019-03-16T08:00:25.350Z,8.70
2019-03-16T08:02:55.701Z,8.80
2019-03-16T08:05:26.417Z,8.80
2019-03-16T08:07:56.761Z,8.80
2019-03-16T08:10:27.194Z,8.90
2019-03-16T08:12:57.538Z,8.90
2019-03-16T08:15:28.298Z,8.90
2019-03-16T08:17:59.494Z,9.00
2019-03-16T08:20:31.519Z,9.10
2019-03-16T08:23:01.862Z,9.00
2019-03-16T08:25:32.254Z,9.10
2019-03-16T08:28:02.603Z,9.10
2019-03-16T08:30:33.066Z,9.10
2019-03-16T08:33:03.410Z,9.10
2019-03-16T08:35:34.209Z,9.10
2019-03-16T08:38:04.559Z,9.10
2019-03-16T08:40:34.933Z,9.20
2019-03-16T08:43:06.461Z,9.20
2019-03-16T08:45:36.930Z,9.20
2019-03-16T08:48:07.273Z,9.30
2019-03-16T08:50:37.674Z,9.30
2019-03-16T08:53:08.005Z,9.30
2019-03-16T08:55:38.369Z,9.40
2019-03-16T08:58:08.713Z,9.50
2019-03-16T09:00:39.138Z,9.70
2019-03-16T09:03:09.482Z,9.70
2019-03-16T09:05:39.860Z,9.80
2019-03-16T09:08:10.214Z,9.90
2019-03-16T09:10:41.806Z,9.90
2019-03-16T09:13:12.157Z,10.00
2019-03-16T09:15:42.979Z,10.10
2019-03-16T09:18:13.321Z,10.10
2019-03-16T09:20:44.048Z,10.10
2019-03-16T09:23:14.702Z,10.10
2019-03-16T09:25:47.133Z,10.10
2019-03-16T09:28:18.828Z,10.10
2019-03-16T09:30:49.578Z,10.10
2019-03-16T09:33:20.072Z,10.20
2019-03-16T09:35:50.934Z,10.20
2019-03-16T09:38:21.277Z,10.20
2019-03-16T09:40:51.671Z,10.30
2019-03-16T09:43:22.053Z,10.40
2019-03-16T09:45:52.441Z,10.40
2019-03-16T09:48:22.826Z,10.50
2019-03-16T09:50:53.186Z,10.50
2019-03-16T09:53:23.574Z,10.60
2019-03-16T09:55:53.929Z,10.60
2019-03-16T09:58:31.187Z,10.60
2019-03-16T10:00:56.313Z,10.60
2019-03-16T10:03:26.811Z,10.60
2019-03-16T10:05:57.558Z,10.50
2019-03-16T10:08:28.454Z,10.60
2019-03-16T10:10:58.955Z,10.70
2019-03-16T10:13:29.347Z,10.90
2019-03-16T10:15:59.765Z,11.10
2019-03-16T10:18:30.158Z,11.00
2019-03-16T10:21:00.515Z,11.10
2019-03-16T10:23:30.907Z,11.40
2019-03-16T10:26:01.267Z,11.40
2019-03-16T10:28:42.919Z,11.40
2019-03-16T10:31:03.814Z,11.50
2019-03-16T10:33:35.277Z,11.40
2019-03-16T10:36:06.014Z,11.30
2019-03-16T10:38:38.401Z,11.30
2019-03-16T10:41:08.713Z,11.10
2019-03-16T10:43:39.181Z,11.10
2019-03-16T10:46:09.888Z,11.20
2019-03-16T10:48:40.383Z,11.20
2019-03-16T10:51:10.726Z,11.10
2019-03-16T10:53:41.121Z,11.10
2019-03-16T10:56:11.469Z,11.00
2019-03-16T10:58:42.234Z,11.10
2019-03-16T11:01:12.605Z,11.10
2019-03-16T11:03:43.336Z,11.20
2019-03-16T11:06:13.678Z,11.30
2019-03-16T11:08:44.069Z,11.20
2019-03-16T11:11:14.546Z,11.20
2019-03-16T11:13:44.910Z,11.20
2019-03-16T11:16:15.310Z,11.20
2019-03-16T11:18:45.673Z,11.10
2019-03-16T11:21:16.089Z,11.30
2019-03-16T11:23:46.434Z,11.30
2019-03-16T11:26:17.335Z,11.30
2019-03-16T11:28:47.689Z,11.30
2019-03-16T11:31:18.453Z,11.20
2019-03-16T11:33:49.981Z,11.20
2019-03-16T11:36:20.369Z,11.10
2019-03-16T11:38:50.770Z,11.00
2019-03-16T11:41:21.654Z,10.90
2019-03-16T11:43:52.006Z,10.70
2019-03-16T11:46:22.538Z,10.50
2019-03-16T11:48:52.937Z,10.10
2019-03-16T11:51:23.345Z,10.10
2019-03-16T11:53:53.726Z,10.00
2019-03-16T11:56:24.102Z,10.10
2019-03-16T11:58:54.489Z,10.00
2019-03-16T12:01:24.954Z,9.60
2019-03-16T12:03:55.548Z,9.60
2019-03-16T12:06:25.957Z,9.80
2019-03-16T12:08:56.323Z,9.80
2019-03-16T12:11:38.902Z,9.70
2019-03-16T12:14:09.261Z,9.60
2019-03-16T12:16:39.617Z,9.50
2019-03-16T12:19:09.991Z,9.50
2019-03-16T12:21:40.374Z,9.50
2019-03-16T12:24:10.749Z,9.30
2019-03-16T12:26:41.094Z,9.40
2019-03-16T12:29:11.469Z,9.40
2019-03-16T12:31:41.826Z,9.20
2019-03-16T12:34:12.302Z,9.30
2019-03-16T12:36:42.651Z,9.10
2019-03-16T12:39:13.824Z,8.90
2019-03-16T12:41:44.501Z,8.80
2019-03-16T12:44:14.946Z,8.80
2019-03-16T12:46:57.018Z,8.80
2019-03-16T12:49:27.430Z,8.70
2019-03-16T12:51:58.161Z,8.60
2019-03-16T12:54:30.993Z,8.60
2019-03-16T12:57:01.339Z,8.60
2019-03-16T12:59:31.806Z,8.60
2019-03-16T13:02:02.190Z,8.60
2019-03-16T13:04:32.598Z,8.50
2019-03-16T13:07:02.966Z,8.50
2019-03-16T13:09:33.449Z,8.30
2019-03-16T13:12:03.821Z,8.30
2019-03-16T13:14:34.249Z,8.30
2019-03-16T13:17:04.598Z,8.20
2019-03-16T13:19:35.453Z,8.30
2019-03-16T13:22:05.793Z,8.30
2019-03-16T13:24:36.187Z,8.20
2019-03-16T13:27:06.582Z,8.10
2019-03-16T13:29:37.045Z,8.00
2019-03-16T13:32:07.382Z,8.00
2019-03-16T13:34:37.742Z,8.00
2019-03-16T13:37:08.078Z,8.00
2019-03-16T13:39:39.519Z,8.00
2019-03-16T13:42:09.907Z,8.10
2019-03-16T13:44:40.249Z,8.00
2019-03-16T13:47:10.706Z,7.90
2019-03-16T13:49:41.134Z,8.00
2019-03-16T13:52:11.625Z,8.00
2019-03-16T13:54:42.362Z,8.00
2019-03-16T13:57:13.814Z,8.00
2019-03-16T13:59:45.250Z,8.00
2019-03-16T14:02:15.730Z,7.90
2019-03-16T14:04:46.375Z,8.00
2019-03-16T14:07:16.817Z,7.80
2019-03-16T14:09:47.173Z,7.80
2019-03-16T14:12:17.586Z,7.80
2019-03-16T14:14:49.311Z,7.80
2019-03-16T14:17:19.699Z,7.70
2019-03-16T14:19:50.118Z,7.90
2019-03-16T14:22:20.497Z,7.70
2019-03-16T14:24:50.861Z,7.60
2019-03-16T14:27:21.274Z,7.70
2019-03-16T14:29:51.634Z,7.70
2019-03-16T14:32:23.846Z,7.70
2019-03-16T14:34:54.142Z,7.70
2019-03-16T14:37:24.850Z,7.70
2019-03-16T14:39:55.494Z,7.80
2019-03-16T14:42:25.982Z,7.80
2019-03-16T14:44:56.357Z,7.80
2019-03-16T14:47:26.736Z,7.80
2019-03-16T14:49:57.138Z,7.70
2019-03-16T14:52:27.461Z,7.60
2019-03-16T14:54:57.845Z,7.60
2019-03-16T14:57:28.203Z,7.50
2019-03-16T14:59:59.583Z,7.50
2019-03-16T15:02:30.069Z,7.50
2019-03-16T15:05:00.483Z,7.40
2019-03-16T15:07:30.906Z,7.40
2019-03-16T15:10:01.329Z,7.50
2019-03-16T15:12:31.722Z,7.20
2019-03-16T15:15:02.109Z,7.20
2019-03-16T15:17:32.910Z,7.10
2019-03-16T15:20:03.421Z,7.10
2019-03-16T15:22:33.775Z,7.20
2019-03-16T15:25:05.524Z,7.10
2019-03-16T15:27:36.420Z,7.20
2019-03-16T15:30:09.785Z,7.20
2019-03-16T15:32:40.135Z,7.20
2019-03-16T15:35:10.884Z,7.20
2019-03-16T15:37:41.267Z,7.10
2019-03-16T15:40:12.255Z,6.90
2019-03-16T15:42:42.598Z,6.90
2019-03-16T15:45:16.168Z,6.90
2019-03-16T15:47:46.514Z,6.90
2019-03-16T15:50:17.103Z,6.80
2019-03-16T15:52:47.431Z,6.80
2019-03-16T15:55:17.796Z,6.80
2019-03-16T15:57:48.893Z,6.80
2019-03-16T16:00:19.250Z,6.90
2019-03-16T16:03:01.782Z,6.90
2019-03-16T16:05:32.198Z,7.00
2019-03-16T16:08:04.247Z,6.90
2019-03-16T16:10:34.710Z,6.90
2019-03-16T16:13:05.229Z,6.90
2019-03-16T16:15:35.762Z,6.90
2019-03-16T16:18:06.153Z,6.80
2019-03-16T16:20:36.540Z,6.90
2019-03-16T16:23:06.988Z,6.90
2019-03-16T16:25:37.474Z,6.80
2019-03-16T16:28:07.861Z,6.90
2019-03-16T16:30:38.405Z,7.00
2019-03-16T16:33:20.893Z,7.00
2019-03-16T16:35:53.323Z,6.90
2019-03-16T16:38:24.128Z,6.90
2019-03-16T16:40:54.620Z,6.90
2019-03-16T16:43:25.700Z,6.90
2019-03-16T16:45:56.546Z,6.90
2019-03-16T16:48:27.115Z,6.90
2019-03-16T16:50:57.569Z,7.00
2019-03-16T16:53:28.006Z,6.90
2019-03-16T16:55:58.589Z,6.90
2019-03-16T16:58:29.089Z,7.00
2019-03-16T17:01:00.774Z,6.90
2019-03-16T17:03:31.225Z,7.00
2019-03-16T17:06:01.576Z,7.00
2019-03-16T17:08:32.025Z,7.10
2019-03-16T17:11:02.775Z,7.00
2019-03-16T17:13:33.655Z,7.00
2019-03-16T17:16:06.286Z,7.10
2019-03-16T17:18:36.863Z,7.10
2019-03-16T17:21:07.477Z,7.20
2019-03-16T17:23:39.271Z,7.20
2019-03-16T17:26:10.284Z,7.30
2019-03-16T17:28:41.153Z,7.30
2019-03-16T17:31:13.586Z,7.40
2019-03-16T17:33:44.190Z,7.40
2019-03-16T17:36:16.661Z,7.50
2019-03-16T17:38:47.058Z,7.50
2019-03-16T17:41:17.803Z,7.50
2019-03-16T17:43:48.665Z,7.60
2019-03-16T17:46:29.433Z,7.60
2019-03-16T17:48:59.990Z,7.60
2019-03-16T17:51:30.462Z,7.60
2019-03-16T17:54:01.311Z,7.60
2019-03-16T17:56:31.684Z,7.70
2019-03-16T17:59:02.666Z,7.70
2019-03-16T18:01:33.417Z,7.70
2019-03-16T18:04:03.882Z,7.80
2019-03-16T18:06:34.628Z,7.80
2019-03-16T18:09:09.591Z,7.80
2019-03-16T18:11:40.346Z,7.80
2019-03-16T18:14:11.269Z,7.80
2019-03-16T18:16:41.656Z,7.80
2019-03-16T18:19:12.490Z,7.80
2019-03-16T18:21:43.238Z,7.90
2019-03-16T18:24:14.858Z,7.90
2019-03-16T18:26:45.272Z,8.00
2019-03-16T18:29:15.693Z,8.00
2019-03-16T18:31:46.382Z,8.00
2019-03-16T18:34:16.830Z,8.00
2019-03-16T18:36:47.217Z,8.00
2019-03-16T18:39:17.573Z,8.10
2019-03-16T18:41:47.962Z,8.10
2019-03-16T18:44:18.324Z,8.10
2019-03-16T18:46:48.721Z,8.10
2019-03-16T18:49:19.110Z,8.10
2019-03-16T18:51:49.609Z,8.20
2019-03-16T18:54:20.066Z,8.20
2019-03-16T18:56:50.475Z,8.20
2019-03-16T18:59:23.770Z,8.20
2019-03-16T19:01:54.626Z,8.20
2019-03-16T19:04:25.134Z,8.30
2019-03-16T19:06:55.680Z,8.30
2019-03-16T19:09:26.254Z,8.30
2019-03-16T19:11:57.120Z,8.30
2019-03-16T19:14:29.067Z,8.40
2019-03-16T19:16:59.486Z,8.40
2019-03-16T19:19:30.318Z,8.40
2019-03-16T19:22:00.665Z,8.40
2019-03-16T19:24:31.159Z,8.40
2019-03-16T19:27:01.609Z,8.50
2019-03-16T19:29:32.026Z,8.50
2019-03-16T19:32:02.458Z,8.50
2019-03-16T19:34:34.117Z,8.60
2019-03-16T19:37:04.705Z,8.60
2019-03-16T19:39:35.088Z,8.60
2019-03-16T19:42:17.305Z,8.70
2019-03-16T19:44:47.708Z,8.70
2019-03-16T19:47:18.086Z,8.70
2019-03-16T19:49:48.502Z,8.70
2019-03-16T19:52:18.941Z,8.70
2019-03-16T19:54:49.334Z,8.80
2019-03-16T19:57:19.702Z,8.80
2019-03-16T19:59:50.165Z,8.80
2019-03-16T20:02:20.874Z,8.90
2019-03-16T20:04:51.315Z,8.90
2019-03-16T20:07:23.034Z,8.90
2019-03-16T20:09:54.897Z,8.90
2019-03-16T20:12:25.288Z,8.90
2019-03-16T20:14:55.765Z,9.00
2019-03-16T20:17:26.272Z,9.00
2019-03-16T20:19:56.864Z,9.10
2019-03-16T20:22:27.353Z,9.10
2019-03-16T20:24:58.212Z,9.10
2019-03-16T20:27:28.670Z,9.10
2019-03-16T20:29:59.541Z,9.20
2019-03-16T20:32:29.904Z,9.20
2019-03-16T20:35:00.407Z,9.20
2019-03-16T20:37:32.598Z,9.20
2019-03-16T20:40:03.223Z,9.30
2019-03-16T20:42:33.706Z,9.20
2019-03-16T20:45:04.272Z,9.30
2019-03-16T20:47:34.605Z,9.30
2019-03-16T20:50:06.047Z,9.30
2019-03-16T20:52:36.806Z,9.30
2019-03-16T20:55:07.438Z,9.40
2019-03-16T20:57:37.914Z,9.40
2019-03-16T21:00:09.130Z,9.40
2019-03-16T21:02:39.586Z,9.40
2019-03-16T21:05:10.270Z,9.40
2019-03-16T21:07:40.620Z,9.40
2019-03-16T21:10:11.185Z,9.40
2019-03-16T21:12:41.601Z,9.40
2019-03-16T21:15:12.030Z,9.40
2019-03-16T21:17:42.389Z,9.40
2019-03-16T21:20:13.306Z,9.40
2019-03-16T21:22:43.658Z,9.40
2019-03-16T21:25:14.322Z,9.50
2019-03-16T21:27:44.647Z,9.50
2019-03-16T21:30:15.685Z,9.50
2019-03-16T21:32:46.420Z,9.50
2019-03-16T21:35:16.887Z,9.50
2019-03-16T21:37:47.221Z,9.50
2019-03-16T21:40:19.135Z,9.50
2019-03-16T21:42:49.474Z,9.50
2019-03-16T21:45:19.949Z,9.50
2019-03-16T21:47:59.375Z,9.50
2019-03-16T21:50:22.348Z,9.50
2019-03-16T21:52:52.781Z,9.50
2019-03-16T21:55:23.946Z,9.60
2019-03-16T21:57:54.305Z,9.60
2019-03-16T22:00:24.705Z,9.60
2019-03-16T22:02:55.060Z,9.60
2019-03-16T22:05:25.433Z,9.60
2019-03-16T22:07:55.879Z,9.60
2019-03-16T22:10:26.481Z,9.70
2019-03-16T22:12:56.924Z,9.70
2019-03-16T22:15:27.337Z,9.70
2019-03-16T22:17:57.690Z,9.70
2019-03-16T22:20:28.093Z,9.70
2019-03-16T22:22:58.470Z,9.70
2019-03-16T22:25:28.898Z,9.70
2019-03-16T22:27:59.284Z,9.60
2019-03-16T22:30:29.681Z,9.70
2019-03-16T22:33:00.042Z,9.70
2019-03-16T22:35:30.949Z,9.70
2019-03-16T22:38:01.599Z,9.70
2019-03-16T22:40:32.028Z,9.70
2019-03-16T22:43:02.414Z,9.70
2019-03-16T22:45:33.018Z,9.70
2019-03-16T22:48:03.370Z,9.60
2019-03-16T22:50:33.917Z,9.70
2019-03-16T22:53:04.308Z,9.70
2019-03-16T22:55:34.756Z,9.70
2019-03-16T22:58:05.113Z,9.70
2019-03-16T23:00:49.397Z,9.70
2019-03-16T23:03:19.820Z,9.70
2019-03-16T23:05:50.351Z,9.70
2019-03-16T23:08:20.847Z,9.70
2019-03-16T23:10:51.753Z,9.70
2019-03-16T23:13:22.250Z,9.70
2019-03-16T23:15:53.005Z,9.70
2019-03-16T23:18:23.393Z,9.70
2019-03-16T23:20:53.785Z,9.70
2019-03-16T23:23:24.158Z,9.70
2019-03-16T23:25:54.994Z,9.70
2019-03-16T23:28:25.498Z,9.70
2019-03-16T23:30:55.947Z,9.70
2019-03-16T23:33:26.435Z,9.70
2019-03-16T23:35:56.902Z,9.70
2019-03-16T23:38:27.394Z,9.70
2019-03-16T23:40:57.817Z,9.70
2019-03-16T23:43:28.241Z,9.70
2019-03-16T23:45:58.606Z,9.70
2019-03-16T23:48:29.110Z,9.70
2019-03-16T23:50:59.511Z,9.70
2019-03-16T23:53:29.915Z,9.70
2019-03-16T23:56:00.590Z,9.70
2019-03-16T23:58:31.005Z,9.70
